Time;durP1;ratioP1;P1;durP2;ratioP2;P2;SDS_P1;SDS_P2;PMS_P1;PMS_P2;Temp;Humidity;BMP_temperature;BMP_pressure;BME280_temperature;BME280_humidity;BME280_pressure;Samples;Min_cycle;Max_cycle;Signal;HPM_P1;HPM_P2
2023/02/01 00:01:45;;;;;;;7.30;3.00;;;;;;;0.38;75.40;98050.35;105525;1254;61062;-25
2023/02/01 00:04:13;;;;;;;9.60;3.40;;;;;;;0.21;76.00;98054.52;105570;1253;75353;-24
2023/02/01 00:06:43;;;;;;;6.30;2.70;;;;;;;0.03;76.59;98050.56;105493;1254;75858;-25
2023/02/01 00:09:12;;;;;;;6.40;2.00;;;;;;;0.10;76.72;98048.62;105807;1254;73936;-25
2023/02/01 00:11:40;;;;;;;5.40;2.50;;;;;;;0.70;75.22;98050.33;105744;1254;61069;-24
2023/02/01 00:14:09;;;;;;;8.80;3.40;;;;;;;0.88;73.81;98047.88;105853;1254;61881;-25
2023/02/01 00:16:38;;;;;;;7.90;2.90;;;;;;;0.80;73.80;98043.93;105676;1254;75557;-25
2023/02/01 00:19:12;;;;;;;10.00;3.40;;;;;;;0.57;74.32;98041.63;105533;1254;75884;-25
2023/02/01 00:21:41;;;;;;;7.10;3.30;;;;;;;0.30;74.92;98044.67;105589;1254;74123;-24
2023/02/01 00:24:10;;;;;;;7.10;2.70;;;;;;;0.10;75.50;98040.12;105552;1254;61170;-24
2023/02/01 00:26:43;;;;;;;7.40;2.80;;;;;;;-0.06;76.04;98035.18;105815;1256;61118;-25
2023/02/01 00:29:12;;;;;;;;;;;;;;;-0.21;76.26;98032.22;105711;1259;74269;-24
2023/02/01 00:31:41;;;;;;;4.50;2.50;;;;;;;0.20;76.00;98037.02;105724;1259;74950;-24
2023/02/01 00:34:11;;;;;;;3.60;2.00;;;;;;;0.76;73.99;98035.24;105863;1254;74144;-24
2023/02/01 00:36:42;;;;;;;6.90;2.90;;;;;;;0.91;72.87;98033.05;105641;1254;61994;-24
2023/02/01 00:39:10;;;;;;;8.10;3.30;;;;;;;0.74;72.71;98025.79;105697;1260;61591;-24
2023/02/01 00:41:40;;;;;;;10.30;3.20;;;;;;;0.47;73.42;98025.48;105874;1253;75619;-25
2023/02/01 00:44:08;;;;;;;8.90;3.00;;;;;;;0.20;74.17;98022.83;105833;1254;75764;-24
2023/02/01 00:46:37;;;;;;;5.80;2.50;;;;;;;0.02;74.50;98019.39;105871;1254;74186;-25
2023/02/01 00:49:07;;;;;;;5.30;3.00;;;;;;;-0.16;74.88;98017.46;105794;1253;61087;-24
2023/02/01 00:51:36;;;;;;;7.90;3.20;;;;;;;-0.39;75.65;98015.92;105688;1258;61996;-24
2023/02/01 00:54:05;;;;;;;7.10;2.70;;;;;;;-0.25;75.93;98017.59;105726;1254;74906;-25
2023/02/01 00:56:34;;;;;;;6.40;2.90;;;;;;;0.43;74.95;98014.06;105547;1257;75942;-24
2023/02/01 00:59:03;;;;;;;7.80;3.20;;;;;;;0.61;73.40;98013.40;105622;1254;74007;-25
2023/02/01 01:01:32;;;;;;;6.30;2.90;;;;;;;0.47;73.23;98009.58;105559;1259;61177;-24
2023/02/01 01:04:01;;;;;;;6.10;2.50;;;;;;;0.19;73.62;98005.16;105475;1260;61754;-25
2023/02/01 01:06:31;;;;;;;7.70;3.20;;;;;;;-0.12;74.32;98004.95;105581;1254;75823;-24
2023/02/01 01:09:02;;;;;;;7.70;2.80;;;;;;;-0.42;75.07;98000.25;105338;1254;75799;-25
2023/02/01 01:11:33;;;;;;;7.70;2.80;;;;;;;-0.67;75.79;98002.40;105613;1254;73853;-25
2023/02/01 01:14:01;;;;;;;7.00;2.70;;;;;;;-0.88;76.30;98000.73;105640;1254;61085;-24
2023/02/01 01:16:31;;;;;;;8.60;2.90;;;;;;;-1.06;77.36;98002.33;105515;1254;61696;-24
2023/02/01 01:19:00;;;;;;;5.10;2.30;;;;;;;-0.57;77.52;98003.06;105496;1255;74419;-25
2023/02/01 01:21:29;;;;;;;8.70;3.40;;;;;;;0.05;75.67;97999.25;105542;1254;75949;-24
2023/02/01 01:23:58;;;;;;;7.60;3.00;;;;;;;0.12;74.96;98000.20;105536;1254;73888;-25
2023/02/01 01:26:27;;;;;;;8.70;3.00;;;;;;;-0.14;74.69;97997.23;105529;1254;61110;-25
2023/02/01 01:28:57;;;;;;;6.60;2.90;;;;;;;-0.47;75.39;97991.80;105715;1256;61958;-25
2023/02/01 01:31:25;;;;;;;9.80;2.60;;;;;;;-0.76;76.42;97989.59;105701;1254;75272;-25
2023/02/01 01:33:56;;;;;;;7.20;3.50;;;;;;;-0.99;77.04;97984.64;105595;1254;75945;-25
2023/02/01 01:36:25;;;;;;;8.30;3.30;;;;;;;-1.21;77.96;97978.37;105580;1254;74219;-25
2023/02/01 01:38:53;;;;;;;4.50;2.70;;;;;;;-1.33;78.49;97976.10;105607;1254;61698;-25
2023/02/01 01:49:17;;;;;;;8.50;2.50;;;;;;;-0.62;76.70;97960.02;102674;1296;600234;-25
2023/02/01 01:51:57;;;;;;;7.80;3.30;;;;;;;-0.89;77.57;97960.91;104846;1267;61113;-26
2023/02/01 01:54:28;;;;;;;8.90;3.80;;;;;;;-1.14;78.12;97954.02;104817;1271;61839;-26
2023/02/01 01:56:59;;;;;;;7.20;3.10;;;;;;;-1.32;78.80;97948.96;104747;1267;73701;-25
2023/02/01 01:59:27;;;;;;;6.40;2.60;;;;;;;-1.47;79.20;97945.79;104538;1268;74850;-26
2023/02/01 02:01:56;;;;;;;4.90;2.60;;;;;;;-1.04;78.99;97943.14;103385;1267;1696199;-26
2023/02/01 02:04:25;;;;;;;6.50;3.10;;;;;;;-0.49;77.11;97938.54;105050;1269;61956;-26
2023/02/01 02:07:06;;;;;;;10.40;3.20;;;;;;;-0.41;76.24;97938.98;105117;1264;61776;-26
2023/02/01 02:09:35;;;;;;;4.50;2.50;;;;;;;-0.60;76.22;97937.08;104835;1264;73484;-25
2023/02/01 02:12:04;;;;;;;6.00;2.40;;;;;;;-0.85;76.71;97936.52;104975;1270;74955;-25
2023/02/01 02:14:33;;;;;;;6.50;2.90;;;;;;;-1.11;77.18;97934.95;104867;1270;74137;-25
2023/02/01 02:17:04;;;;;;;10.80;3.40;;;;;;;-1.37;77.70;97931.69;104890;1264;61168;-25
2023/02/01 02:19:42;;;;;;;9.60;2.80;;;;;;;-1.60;78.33;97929.04;104898;1270;61164;-25
2023/02/01 02:22:14;;;;;;;4.30;1.90;;;;;;;-1.44;78.86;97931.52;104907;1263;74760;-25
2023/02/01 02:25:11;;;;;;;8.00;2.40;;;;;;;-0.71;77.38;97924.03;104950;1269;75014;-25
2023/02/01 02:28:09;;;;;;;9.00;3.10;;;;;;;-0.47;75.86;97918.98;105073;1264;74032;-25
2023/02/01 02:31:00;;;;;;;7.20;2.90;;;;;;;-0.63;75.80;97912.88;104830;1269;61180;-25
2023/02/01 02:33:31;;;;;;;12.10;3.10;;;;;;;-0.96;76.34;97908.61;104926;1267;61989;-25
2023/02/01 02:36:09;;;;;;;5.30;3.00;;;;;;;-1.14;76.71;97906.31;104824;1264;74354;-25
2023/02/01 02:38:46;;;;;;;6.70;3.00;;;;;;;-1.27;76.86;97903.90;105731;1254;74859;-24
2023/02/01 02:47:23;;;;;;;10.10;3.50;;;;;;;-1.43;77.39;97908.14;105699;1254;73183;-24
2023/02/01 02:55:36;;;;;;;9.10;2.60;;;;;;;-0.84;76.23;97888.05;105702;1254;73697;-25
2023/02/01 03:06:29;;;;;;;8.10;2.60;;;;;;;-0.56;76.50;97877.52;105665;1254;75759;-24
2023/02/01 03:08:57;;;;;;;7.30;3.30;;;;;;;-0.38;75.25;97873.97;105717;1254;74617;-25
2023/02/01 03:12:55;;;;;;;12.80;3.10;;;;;;;-0.55;75.34;97870.80;105720;1254;61128;-25
2023/02/01 03:14:18;;;;;;;4.30;2.60;;;;;;;-0.79;76.63;97868.89;105718;1254;61933;-24
2023/02/01 03:16:51;;;;;;;6.90;3.40;;;;;;;-0.99;77.40;97867.72;105762;1254;73388;-24
2023/02/01 03:19:25;;;;;;;3.80;2.20;;;;;;;-1.13;77.98;97864.02;105716;1258;75891;-24
2023/02/01 03:22:23;;;;;;;8.20;2.50;;;;;;;-1.17;78.46;97861.67;105708;1259;74169;-24
2023/02/01 03:25:00;;;;;;;14.40;3.10;;;;;;;-0.54;76.94;97856.81;105645;1259;61057;-24
2023/02/01 03:27:34;;;;;;;7.70;3.00;;;;;;;-0.40;75.72;97854.68;105630;1254;61190;-24
2023/02/01 03:30:08;;;;;;;7.60;2.50;;;;;;;-0.51;75.67;97848.95;105608;1254;74532;-24
2023/02/01 03:35:54;;;;;;;4.80;2.20;;;;;;;-1.02;77.65;97840.48;105704;1254;73152;-25
2023/02/01 03:38:28;;;;;;;10.70;3.30;;;;;;;-1.15;78.38;97840.30;105640;1261;61746;-25
2023/02/01 03:41:06;;;;;;;7.70;2.60;;;;;;;-0.80;77.63;97845.41;105619;1255;61836;-24
2023/02/01 03:43:42;;;;;;;10.80;3.30;;;;;;;-0.49;76.41;97840.16;105716;1254;74420;-24
2023/02/01 03:46:12;;;;;;;9.00;3.90;;;;;;;-0.49;76.08;97836.93;105708;1254;75919;-24
2023/02/01 03:48:41;;;;;;;9.20;4.80;;;;;;;-0.62;76.39;97837.14;105681;1253;73859;-24
2023/02/01 03:51:10;;;;;;;11.40;3.90;;;;;;;-0.88;77.27;97834.59;105647;1254;61161;-25
2023/02/01 03:53:40;;;;;;;6.70;3.40;;;;;;;-1.02;78.10;97837.20;105412;1254;61610;-24
2023/02/01 03:56:09;;;;;;;7.90;2.90;;;;;;;-1.03;78.13;97836.20;105532;1254;73535;-24
2023/02/01 04:06:13;;;;;;;6.60;2.80;;;;;;;-0.46;76.15;97821.94;102711;1294;599395;-25
2023/02/01 04:08:42;;;;;;;7.40;3.30;;;;;;;-0.69;76.92;97822.34;104894;1263;61207;-25
2023/02/01 04:11:11;;;;;;;11.00;4.50;;;;;;;-0.82;77.37;97819.80;104907;1263;61123;-25
2023/02/01 04:13:41;;;;;;;7.40;2.10;;;;;;;-0.91;77.78;97822.16;105234;1263;74467;-25
2023/02/01 04:16:09;;;;;;;7.10;2.70;;;;;;;-0.76;78.05;97825.09;105107;1263;75789;-25
2023/02/01 04:18:38;;;;;;;5.40;2.60;;;;;;;-0.10;75.97;97820.09;104904;1263;73983;-25
2023/02/01 04:21:06;;;;;;;8.90;3.00;;;;;;;-0.07;74.98;97816.35;103923;1263;61216;-25
2023/02/01 04:23:36;;;;;;;3.30;2.20;;;;;;;-0.34;75.60;97815.60;105254;1263;61596;-25
2023/02/01 04:26:04;;;;;;;9.00;2.20;;;;;;;-0.52;76.33;97807.23;106028;1256;73735;-26
2023/02/01 04:28:34;;;;;;;6.80;2.90;;;;;;;-0.69;77.08;97808.20;105995;1255;75648;-25
2023/02/01 04:31:03;;;;;;;10.40;3.80;;;;;;;-0.76;77.14;97804.48;105956;1254;74169;-25
2023/02/01 04:33:32;;;;;;;3.40;2.20;;;;;;;-0.83;77.77;97802.47;105917;1253;62599;-25
2023/02/01 04:36:01;;;;;;;7.60;2.60;;;;;;;-0.40;77.16;97804.36;106066;1250;61167;-25
2023/02/01 04:38:31;;;;;;;5.50;2.80;;;;;;;-0.21;75.88;97799.54;106018;1255;74394;-26
2023/02/01 04:41:00;;;;;;;7.10;2.90;;;;;;;-0.31;76.57;97794.80;105976;1251;74960;-25
2023/02/01 04:43:29;;;;;;;9.90;3.60;;;;;;;-0.40;76.80;97794.13;106048;1256;74280;-25
2023/02/01 04:45:57;;;;;;;6.50;2.80;;;;;;;-0.66;77.79;97797.80;105965;1256;61620;-24
2023/02/01 04:48:27;;;;;;;6.40;2.60;;;;;;;-0.84;78.89;97796.38;105853;1256;61170;-24
2023/02/01 04:50:56;;;;;;;11.30;3.20;;;;;;;-0.82;79.87;97793.17;105973;1251;74602;-25
2023/02/01 04:53:25;;;;;;;12.90;3.30;;;;;;;-0.26;78.40;97790.27;106032;1254;75554;-24
2023/02/01 04:55:55;;;;;;;14.00;3.50;;;;;;;-0.39;78.27;97788.11;106004;1255;72383;-24
2023/02/01 04:58:24;;;;;;;5.70;3.00;;;;;;;-0.46;78.91;97791.56;105865;1257;60997;-24
2023/02/01 05:00:53;;;;;;;8.00;3.30;;;;;;;-0.70;79.94;97782.31;105809;1259;62164;-24
2023/02/01 05:03:21;;;;;;;14.20;3.80;;;;;;;-0.87;80.47;97778.81;105962;1251;74544;-24
2023/02/01 05:05:53;;;;;;;3.50;2.30;;;;;;;-0.83;81.02;97774.52;105953;1256;73655;-24
2023/02/01 05:08:22;;;;;;;5.10;3.20;;;;;;;-0.38;80.08;97770.50;105910;1253;73043;-24
2023/02/01 05:10:51;;;;;;;8.10;2.40;;;;;;;-0.23;78.79;97760.59;105924;1256;61707;-24
2023/02/01 05:16:07;;;;;;;4.80;2.40;;;;;;;-0.54;79.78;97758.77;105964;1253;73582;-25
2023/02/01 05:18:35;;;;;;;9.80;3.10;;;;;;;-0.76;81.13;97757.80;105922;1253;75797;-24
2023/02/01 05:21:04;;;;;;;8.40;2.90;;;;;;;-0.72;81.58;97759.61;105904;1256;74094;-24
2023/02/01 05:24:09;;;;;;;7.30;2.70;;;;;;;-0.34;80.70;97752.34;105918;1256;61174;-24
2023/02/01 05:26:24;;;;;;;7.80;2.40;;;;;;;-0.32;80.67;97754.27;105917;1254;61767;-25
2023/02/01 05:28:53;;;;;;;5.90;2.40;;;;;;;-0.45;81.17;97752.64;105806;1253;74539;-24
2023/02/01 05:31:22;;;;;;;4.40;3.00;;;;;;;-0.68;82.54;97753.59;105910;1256;75810;-24
2023/02/01 05:33:50;;;;;;;7.20;2.90;;;;;;;-0.85;83.15;97746.16;105802;1257;74039;-25
2023/02/01 05:36:19;;;;;;;4.60;2.20;;;;;;;-0.64;83.52;97741.57;105880;1256;61328;-24
2023/02/01 05:38:48;;;;;;;7.20;2.20;;;;;;;-0.23;82.55;97742.17;105855;1252;62027;-25
2023/02/01 05:41:17;;;;;;;4.30;1.90;;;;;;;-0.20;81.90;97737.02;105788;1254;74631;-24
2023/02/01 05:43:47;;;;;;;6.30;2.30;;;;;;;-0.32;82.19;97737.07;105753;1254;75813;-24
2023/02/01 05:46:15;;;;;;;5.80;3.10;;;;;;;-0.60;82.97;97733.54;105887;1255;74092;-25
2023/02/01 05:48:44;;;;;;;4.60;2.30;;;;;;;-0.65;83.88;97735.52;105893;1256;62508;-24
2023/02/01 05:51:13;;;;;;;2.30;1.70;;;;;;;-0.25;82.91;97728.44;105929;1253;61883;-25
2023/02/01 05:53:42;;;;;;;5.90;3.40;;;;;;;-0.09;82.51;97733.54;105614;1254;74502;-25
2023/02/01 05:56:10;;;;;;;7.00;3.00;;;;;;;-0.20;82.17;97732.63;105751;1255;75561;-24
2023/02/01 05:58:39;;;;;;;6.30;2.90;;;;;;;-0.47;83.28;97726.15;105661;1254;74022;-24
2023/02/01 06:01:08;;;;;;;5.40;2.20;;;;;;;-0.76;84.43;97730.14;105814;1259;61124;-24
2023/02/01 06:03:37;;;;;;;3.30;2.20;;;;;;;-0.55;84.89;97730.02;105800;1255;61888;-24
2023/02/01 06:06:06;;;;;;;2.60;1.20;;;;;;;-0.26;83.53;97729.05;105950;1253;72333;-24
2023/02/01 06:08:35;;;;;;;4.10;2.20;;;;;;;-0.18;82.73;97727.88;105831;1256;75129;-24
2023/02/01 06:11:04;;;;;;;5.90;2.20;;;;;;;-0.41;83.36;97724.13;105804;1258;74281;-24
2023/02/01 06:13:33;;;;;;;2.50;2.10;;;;;;;-0.70;84.43;97728.27;105723;1260;61117;-24
2023/02/01 06:16:02;;;;;;;3.60;2.20;;;;;;;-0.62;85.10;97724.45;105965;1251;61802;-24
2023/02/01 06:18:34;;;;;;;6.00;2.80;;;;;;;-0.29;83.62;97715.92;105706;1260;74432;-24
2023/02/01 06:21:03;;;;;;;6.40;2.60;;;;;;;-0.20;83.38;97721.55;105649;1258;74733;-24
2023/02/01 06:23:33;;;;;;;4.40;2.50;;;;;;;-0.36;83.45;97713.42;105808;1257;74222;-24
2023/02/01 06:26:07;;;;;;;5.20;2.40;;;;;;;-0.47;84.03;97714.21;105640;1253;61203;-24
2023/02/01 06:28:35;;;;;;;3.10;2.00;;;;;;;-0.52;84.84;97710.25;105506;1258;61755;-24
2023/02/01 06:31:06;;;;;;;5.70;2.60;;;;;;;-0.24;83.89;97708.45;105647;1254;74527;-24
2023/02/01 06:33:36;;;;;;;2.10;1.50;;;;;;;-0.09;82.96;97708.42;105548;1261;75834;-24
2023/02/01 06:36:09;;;;;;;2.70;1.90;;;;;;;-0.28;83.35;97705.44;105681;1256;74225;-24
2023/02/01 06:38:38;;;;;;;3.00;1.90;;;;;;;-0.60;84.93;97707.61;105675;1253;61094;-24
2023/02/01 06:41:07;;;;;;;6.70;3.50;;;;;;;-0.47;85.00;97708.73;105933;1254;61192;-24
2023/02/01 06:43:37;;;;;;;6.70;3.50;;;;;;;-0.24;84.24;97705.02;105707;1256;74533;-24
2023/02/01 06:46:06;;;;;;;3.30;2.30;;;;;;;-0.06;83.62;97708.27;105886;1254;75770;-24
2023/02/01 06:48:36;;;;;;;5.20;2.80;;;;;;;-0.21;83.85;97701.09;105684;1254;74187;-24
2023/02/01 06:51:05;;;;;;;6.60;3.10;;;;;;;-0.31;84.00;97697.08;105605;1253;61057;-23
2023/02/01 06:53:36;;;;;;;9.10;3.90;;;;;;;-0.47;84.96;97700.38;105664;1259;61790;-24
2023/02/01 06:56:04;;;;;;;6.10;3.60;;;;;;;-0.11;84.27;97697.30;105848;1254;74458;-24
2023/02/01 06:58:33;;;;;;;5.80;2.30;;;;;;;-0.06;83.64;97695.82;105616;1256;75753;-24
2023/02/01 07:01:06;;;;;;;2.50;1.90;;;;;;;-0.22;84.03;97696.06;105564;1253;74313;-24
2023/02/01 07:03:35;;;;;;;4.80;2.70;;;;;;;-0.29;84.04;97696.64;105533;1254;61029;-24
2023/02/01 07:06:04;;;;;;;5.50;2.80;;;;;;;-0.40;85.24;97693.20;105659;1251;61148;-23
2023/02/01 07:08:36;;;;;;;4.90;3.00;;;;;;;-0.04;84.12;97694.83;105948;1256;74390;-24
2023/02/01 07:11:07;;;;;;;5.10;2.80;;;;;;;0.02;83.68;97685.41;105780;1254;74973;-24
2023/02/01 07:13:36;;;;;;;3.10;1.70;;;;;;;-0.17;83.82;97686.34;105651;1253;73623;-24
2023/02/01 07:16:07;;;;;;;4.10;2.50;;;;;;;-0.32;84.54;97686.73;105857;1256;61134;-24
2023/02/01 07:18:35;;;;;;;4.50;2.70;;;;;;;-0.22;84.80;97675.21;105631;1258;61904;-24
2023/02/01 07:21:04;;;;;;;8.90;5.10;;;;;;;0.25;83.33;97676.89;105838;1256;74130;-24
2023/02/01 07:23:33;;;;;;;3.80;2.90;;;;;;;0.18;82.60;97675.09;105639;1257;75747;-24
2023/02/01 07:26:03;;;;;;;6.80;3.70;;;;;;;0.05;83.04;97677.21;105665;1253;74321;-24
2023/02/01 07:28:33;;;;;;;4.20;2.80;;;;;;;-0.08;83.52;97675.42;105661;1254;62156;-25
2023/02/01 07:31:15;;;;;;;4.30;2.40;;;;;;;-0.24;84.63;97670.92;105753;1259;61710;-25
2023/02/01 07:33:43;;;;;;;6.50;2.60;;;;;;;0.18;83.79;97671.34;105820;1257;74547;-25
2023/02/01 07:36:14;;;;;;;6.10;3.20;;;;;;;0.40;82.75;97666.44;105799;1259;75819;-26
2023/02/01 07:38:43;;;;;;;6.20;3.20;;;;;;;0.29;82.38;97670.13;105679;1255;74165;-26
2023/02/01 07:41:12;;;;;;;3.00;2.40;;;;;;;0.08;82.90;97672.42;105597;1255;61184;-26
2023/02/01 07:43:40;;;;;;;3.00;2.00;;;;;;;0.04;83.11;97671.63;105797;1265;61717;-23
2023/02/01 07:46:09;;;;;;;1.40;1.30;;;;;;;0.46;82.68;97670.95;105862;1256;74565;-24
2023/02/01 07:48:38;;;;;;;5.00;2.70;;;;;;;0.89;81.20;97662.48;105677;1256;75509;-27
2023/02/01 07:51:11;;;;;;;3.30;2.50;;;;;;;0.88;80.30;97673.33;105688;1255;74366;-25
2023/02/01 07:53:40;;;;;;;;;;;;;;;0.58;80.71;97668.87;105522;1256;61102;-26
2023/02/01 07:56:12;;;;;;;2.30;1.90;;;;;;;0.23;82.14;97669.17;105773;1257;61619;-27
2023/02/01 07:58:41;;;;;;;3.40;2.70;;;;;;;0.13;83.19;97663.77;105533;1259;74518;-26
2023/02/01 08:01:19;;;;;;;4.30;2.30;;;;;;;0.48;82.74;97661.34;105894;1256;75857;-27
2023/02/01 08:04:01;;;;;;;6.80;2.80;;;;;;;0.42;82.08;97657.59;105680;1253;74207;-27
2023/02/01 08:06:32;;;;;;;5.80;2.30;;;;;;;0.15;83.38;97657.88;105724;1266;61100;-27
2023/02/01 08:09:03;;;;;;;2.30;1.70;;;;;;;0.05;83.78;97655.04;105491;1256;61040;-28
2023/02/01 08:11:31;;;;;;;2.70;1.50;;;;;;;0.25;84.13;97664.56;105777;1258;73369;-27
2023/02/01 08:14:00;;;;;;;3.00;1.80;;;;;;;0.73;82.89;97660.77;105915;1254;74838;-28
2023/02/01 08:16:29;;;;;;;1.50;1.20;;;;;;;0.96;81.71;97659.50;105932;1256;73960;-26
2023/02/01 08:18:57;;;;;;;2.90;2.10;;;;;;;0.73;82.10;97658.90;105888;1254;61050;-26
2023/02/01 08:21:36;;;;;;;2.10;1.50;;;;;;;0.66;82.00;97666.30;105945;1263;61685;-26
2023/02/01 08:24:06;;;;;;;1.10;0.90;;;;;;;0.50;82.88;97668.67;105730;1261;75385;-26
2023/02/01 08:26:37;;;;;;;2.10;1.20;;;;;;;0.90;82.71;97662.62;105735;1260;75648;-24
2023/02/01 08:29:06;;;;;;;2.30;1.20;;;;;;;1.38;81.41;97663.59;105756;1256;73929;-23
2023/02/01 08:31:35;;;;;;;1.50;1.40;;;;;;;1.41;80.46;97656.25;105713;1254;61854;-23
2023/02/01 08:34:04;;;;;;;1.50;1.20;;;;;;;1.13;81.01;97659.09;105930;1255;61546;-24
2023/02/01 08:36:32;;;;;;;2.00;1.50;;;;;;;0.93;81.95;97664.98;105925;1255;74342;-24
2023/02/01 08:39:05;;;;;;;2.00;1.40;;;;;;;0.71;82.99;97666.52;105682;1257;74832;-23
2023/02/01 08:41:34;;;;;;;1.40;1.10;;;;;;;0.77;83.86;97667.84;105753;1254;74167;-24
2023/02/01 08:44:03;;;;;;;2.60;1.20;;;;;;;1.30;82.76;97666.21;105900;1256;62116;-23
2023/02/01 08:46:31;;;;;;;2.00;1.40;;;;;;;1.45;81.80;97664.70;105552;1260;61859;-24
2023/02/01 08:49:00;;;;;;;1.40;0.90;;;;;;;1.17;82.44;97663.80;105588;1256;74882;-24
2023/02/01 08:51:29;;;;;;;1.20;1.10;;;;;;;0.98;83.31;97664.61;105660;1260;75860;-24
2023/02/01 08:53:58;;;;;;;1.00;0.90;;;;;;;0.79;84.23;97664.52;105716;1258;74416;-25
2023/02/01 08:56:26;;;;;;;1.10;0.80;;;;;;;0.81;84.81;97657.54;105861;1257;62689;-24
2023/02/01 08:58:55;;;;;;;2.00;1.30;;;;;;;1.35;83.32;97655.59;105905;1252;61563;-24
2023/02/01 09:01:24;;;;;;;2.00;1.10;;;;;;;1.53;82.08;97656.69;105902;1256;75141;-24
2023/02/01 09:03:54;;;;;;;1.30;1.20;;;;;;;1.43;82.00;97652.89;105697;1259;75851;-24
2023/02/01 09:06:22;;;;;;;3.00;1.70;;;;;;;1.22;82.64;97651.13;105722;1259;74116;-24
2023/02/01 09:08:51;;;;;;;1.40;1.20;;;;;;;1.06;83.51;97653.03;105884;1255;61053;-24
2023/02/01 09:11:20;;;;;;;2.30;1.50;;;;;;;1.27;83.51;97646.41;105776;1258;61604;-24
2023/02/01 09:13:49;;;;;;;3.30;1.40;;;;;;;1.60;82.06;97642.70;105850;1257;74102;-23
2023/02/01 09:16:18;;;;;;;2.90;1.40;;;;;;;1.58;81.77;97652.23;105659;1264;76000;-24
2023/02/01 09:18:47;;;;;;;2.00;1.30;;;;;;;1.46;82.35;97652.33;105677;1257;72929;-24
2023/02/01 09:21:35;;;;;;;2.00;1.30;;;;;;;1.20;83.37;97649.38;105860;1254;61216;-24
2023/02/01 09:24:04;;;;;;;2.40;0.90;;;;;;;1.28;83.69;97658.13;105751;1258;61842;-24
2023/02/01 09:26:32;;;;;;;3.00;1.70;;;;;;;1.70;82.46;97651.48;105753;1258;75122;-25
2023/02/01 09:29:01;;;;;;;1.70;1.30;;;;;;;1.74;81.92;97655.42;105785;1259;75581;-24
2023/02/01 09:31:30;;;;;;;4.40;1.90;;;;;;;1.59;82.49;97657.76;105700;1251;74096;-27
2023/02/01 09:34:00;;;;;;;2.90;2.50;;;;;;;1.36;83.31;97656.23;105948;1251;61308;-25
2023/02/01 09:36:29;;;;;;;3.00;1.50;;;;;;;1.26;84.29;97660.64;105897;1256;61862;-26
2023/02/01 09:38:59;;;;;;;5.40;2.80;;;;;;;1.59;83.72;97656.80;105811;1256;75081;-25
2023/02/01 09:41:33;;;;;;;6.40;2.00;;;;;;;1.91;82.19;97661.83;105732;1259;75594;-26
2023/02/01 09:44:31;;;;;;;3.40;2.00;;;;;;;1.79;81.61;97654.93;105699;1254;74269;-25
2023/02/01 09:47:13;;;;;;;2.50;1.80;;;;;;;1.55;81.98;97653.27;105743;1256;61140;-25
2023/02/01 09:49:50;;;;;;;3.50;1.90;;;;;;;1.32;82.67;97657.00;105541;1257;61164;-25
2023/02/01 09:52:22;;;;;;;4.20;2.00;;;;;;;1.56;82.28;97654.02;105460;1255;73730;-24
2023/02/01 09:54:57;;;;;;;3.40;1.60;;;;;;;1.97;80.58;97656.09;105659;1266;76270;-25
2023/02/01 09:57:28;;;;;;;3.20;1.50;;;;;;;2.02;79.82;97656.80;105669;1254;74117;-25
2023/02/01 10:00:00;;;;;;;3.80;1.90;;;;;;;1.87;80.05;97651.11;105579;1256;61155;-25
2023/02/01 10:02:39;;;;;;;2.50;2.00;;;;;;;1.65;80.64;97651.25;105727;1255;61126;-25
2023/02/01 10:05:15;;;;;;;3.70;2.00;;;;;;;1.69;81.10;97650.66;105869;1255;74150;-26
2023/02/01 10:07:53;;;;;;;3.20;1.50;;;;;;;2.18;79.42;97646.28;105504;1256;74827;-26
2023/02/01 10:10:30;;;;;;;3.00;2.00;;;;;;;2.27;77.91;97642.44;105593;1254;72199;-25
2023/02/01 10:13:33;;;;;;;3.80;1.70;;;;;;;1.97;78.64;97637.64;105456;1256;62028;-25
2023/02/01 10:16:02;;;;;;;2.80;2.00;;;;;;;1.81;78.97;97640.08;105133;1263;61878;-25
2023/02/01 10:19:08;;;;;;;2.70;1.90;;;;;;;1.61;79.89;97637.64;105719;1257;73869;-25
2023/02/01 10:22:09;;;;;;;3.00;1.60;;;;;;;1.80;79.68;97643.73;105515;1267;75858;-25
2023/02/01 10:25:02;;;;;;;4.70;2.20;;;;;;;2.02;78.65;97649.64;105667;1254;74226;-25
2023/02/01 10:27:35;;;;;;;3.00;1.90;;;;;;;1.83;79.35;97654.45;105774;1254;61783;-25
2023/02/01 10:30:10;;;;;;;2.40;1.70;;;;;;;1.48;80.91;97653.76;105684;1261;61555;-25
2023/02/01 10:32:39;;;;;;;2.30;1.40;;;;;;;1.38;81.66;97666.56;105696;1258;74349;-25
2023/02/01 10:35:17;;;;;;;2.20;1.90;;;;;;;1.67;81.14;97657.77;105737;1257;75966;-25
2023/02/01 10:37:46;;;;;;;3.30;1.70;;;;;;;2.07;79.08;97649.97;105755;1256;73167;-25
2023/02/01 10:40:22;;;;;;;2.70;1.70;;;;;;;2.12;78.32;97649.83;105939;1254;61883;-25
2023/02/01 10:50:09;;;;;;;6.50;1.80;;;;;;;1.77;79.44;97652.36;102696;1293;600041;-24
2023/02/01 10:52:52;;;;;;;1.60;1.30;;;;;;;2.03;78.24;97648.84;104846;1267;61921;-26
2023/02/01 10:55:32;;;;;;;3.50;1.90;;;;;;;1.99;78.19;97656.16;104861;1272;61674;-24
2023/02/01 10:58:02;;;;;;;2.80;1.70;;;;;;;1.86;79.02;97657.88;104727;1273;73771;-26
2023/02/01 11:00:42;;;;;;;2.00;1.30;;;;;;;1.53;80.54;97652.17;104771;1273;75859;-26
2023/02/01 11:03:38;;;;;;;6.00;1.40;;;;;;;1.45;81.43;97653.61;103462;1264;1792425;-26
2023/02/01 11:06:20;;;;;;;2.50;1.40;;;;;;;1.91;80.03;97657.21;104844;1267;62629;-26
2023/02/01 11:08:51;;;;;;;5.40;1.40;;;;;;;1.89;79.30;97655.77;104878;1264;61118;-26
2023/02/01 11:11:20;;;;;;;2.90;1.70;;;;;;;1.85;79.34;97660.69;104857;1265;72505;-26
2023/02/01 11:13:59;;;;;;;3.30;1.50;;;;;;;1.75;79.62;97662.05;104867;1269;74863;-26
2023/02/01 11:16:37;;;;;;;4.50;1.80;;;;;;;1.62;80.21;97657.98;104813;1270;72884;-25
2023/02/01 11:19:07;;;;;;;2.90;0.70;;;;;;;1.81;79.92;97665.59;104786;1264;61307;-25
2023/02/01 11:21:37;;;;;;;2.50;1.20;;;;;;;2.08;78.44;97663.06;104779;1271;61826;-25
2023/02/01 11:24:23;;;;;;;4.50;1.30;;;;;;;2.15;77.70;97656.27;105196;1267;74841;-25
2023/02/01 11:26:55;;;;;;;3.30;1.40;;;;;;;1.94;78.03;97651.14;105292;1264;75921;-26
2023/02/01 11:29:29;;;;;;;3.80;1.70;;;;;;;1.99;78.17;97659.77;105441;1257;73866;-25
2023/02/01 11:31:59;;;;;;;4.00;1.90;;;;;;;1.86;78.19;97650.34;105291;1264;61154;-25
2023/02/01 11:34:36;;;;;;;1.50;1.20;;;;;;;1.99;77.93;97655.16;105549;1263;61891;-25
2023/02/01 11:37:05;;;;;;;4.50;1.30;;;;;;;2.29;76.25;97650.30;105188;1265;74344;-25
2023/02/01 11:39:34;;;;;;;4.10;1.50;;;;;;;2.40;75.60;97653.52;105184;1257;74983;-26
2023/02/01 11:42:05;;;;;;;3.50;1.60;;;;;;;2.29;75.99;97656.15;105630;1257;74103;-26
2023/02/01 11:44:37;;;;;;;4.00;1.40;;;;;;;2.09;76.61;97659.45;105297;1257;61199;-26
2023/02/01 11:47:23;;;;;;;7.70;1.60;;;;;;;2.00;76.99;97659.89;105342;1257;61056;-26
2023/02/01 11:49:56;;;;;;;3.80;1.40;;;;;;;1.78;77.87;97664.56;105293;1260;74611;-26
2023/02/01 11:52:48;;;;;;;5.50;1.70;;;;;;;1.96;77.44;97657.23;105329;1260;75696;-25
2023/02/01 11:55:36;;;;;;;3.10;1.40;;;;;;;2.28;75.74;97645.42;105511;1262;74138;-26
2023/02/01 11:58:24;;;;;;;4.60;1.80;;;;;;;2.26;75.62;97647.48;105515;1260;61920;-26
2023/02/01 12:01:08;;;;;;;5.80;1.60;;;;;;;2.04;76.59;97656.67;105282;1260;61083;-27
2023/02/01 12:03:37;;;;;;;5.80;2.10;;;;;;;1.87;77.33;97656.93;105514;1260;74486;-27
2023/02/01 12:06:14;;;;;;;3.70;1.80;;;;;;;1.66;77.89;97646.56;105536;1262;74264;-27
2023/02/01 12:09:07;;;;;;;1.90;1.10;;;;;;;1.78;78.11;97664.27;105473;1258;73999;-27
2023/02/01 12:11:52;;;;;;;4.50;1.40;;;;;;;2.00;78.66;97672.34;105277;1265;61953;-26
2023/02/01 12:14:38;;;;;;;2.60;1.10;;;;;;;1.95;78.89;97668.89;105262;1259;61145;-25
2023/02/01 12:17:29;;;;;;;1.90;1.40;;;;;;;1.68;80.27;97673.61;105288;1259;72968;-26
2023/02/01 12:20:13;;;;;;;2.70;1.30;;;;;;;1.49;80.99;97670.25;105534;1260;74842;-25
2023/02/01 12:22:46;;;;;;;2.90;1.10;;;;;;;1.39;81.51;97673.96;105290;1259;74234;-25
2023/02/01 12:25:28;;;;;;;3.30;2.00;;;;;;;1.81;80.18;97671.87;105513;1259;61148;-27
2023/02/01 12:28:02;;;;;;;5.00;1.40;;;;;;;2.02;78.72;97670.51;105263;1261;62196;-25
2023/02/01 12:30:40;;;;;;;3.30;1.90;;;;;;;1.96;78.56;97678.46;105181;1260;74795;-27
2023/02/01 12:33:38;;;;;;;3.30;1.30;;;;;;;1.76;79.07;97672.91;105513;1260;76082;-25
2023/02/01 12:36:10;;;;;;;5.70;1.30;;;;;;;1.59;79.42;97669.26;105486;1261;73175;-25
2023/02/01 12:38:53;;;;;;;4.50;1.20;;;;;;;1.84;78.86;97677.52;105240;1260;61196;-25
2023/02/01 12:41:44;;;;;;;3.40;1.10;;;;;;;2.18;77.09;97677.27;105188;1259;61189;-24
2023/02/01 12:44:35;;;;;;;5.70;1.50;;;;;;;2.11;76.74;97673.32;105548;1260;74294;-25